createdAt,value
2023-04-09T00:00:45.605Z,85.19
2023-04-09T00:01:45.634Z,85.19
2023-04-09T00:02:45.647Z,85.05
2023-04-09T00:03:45.676Z,85.61
2023-04-09T00:04:45.711Z,85.52
2023-04-09T00:05:45.631Z,85.61
2023-04-09T00:06:45.640Z,85.61
2023-04-09T00:07:45.635Z,85.61
2023-04-09T00:08:45.668Z,85.61
2023-04-09T00:09:45.650Z,85.42
2023-04-09T00:10:45.659Z,85.24
2023-04-09T00:11:45.659Z,84.95
2023-04-09T00:12:45.673Z,84.10
2023-04-09T00:13:45.676Z,84.20
2023-04-09T00:14:45.679Z,84.20
2023-04-09T00:15:45.682Z,84.39
2023-04-09T00:16:45.820Z,84.01
2023-04-09T00:17:45.812Z,84.20
2023-04-09T00:18:45.731Z,84.29
2023-04-09T00:19:45.707Z,84.39
2023-04-09T00:20:45.719Z,84.10
2023-04-09T00:21:45.721Z,84.20
2023-04-09T00:22:45.724Z,84.67
2023-04-09T00:23:45.726Z,84.67
2023-04-09T00:24:45.754Z,84.01
2023-04-09T00:25:45.751Z,84.10
2023-04-09T00:26:45.746Z,84.48
2023-04-09T00:27:45.747Z,84.67
2023-04-09T00:28:45.757Z,84.67
2023-04-09T00:29:45.766Z,84.58
2023-04-09T00:30:45.800Z,84.67
2023-04-09T00:31:45.790Z,84.67
2023-04-09T00:32:45.798Z,84.48
2023-04-09T00:33:45.778Z,84.48
2023-04-09T00:34:45.803Z,84.29
2023-04-09T00:35:45.817Z,84.20
2023-04-09T00:36:45.812Z,84.77
2023-04-09T00:37:45.820Z,84.20
2023-04-09T00:38:45.830Z,84.48
2023-04-09T00:39:45.820Z,85.05
2023-04-09T00:40:45.841Z,85.90
2023-04-09T00:41:45.831Z,85.52
2023-04-09T00:42:45.830Z,85.24
2023-04-09T00:43:45.834Z,85.42
2023-04-09T00:44:45.846Z,85.14
2023-04-09T00:45:45.928Z,85.14
2023-04-09T00:46:45.854Z,85.42
2023-04-09T00:47:45.875Z,85.14
2023-04-09T00:48:45.869Z,85.05
2023-04-09T00:49:45.881Z,85.42
2023-04-09T00:50:45.881Z,85.05
2023-04-09T00:51:45.879Z,85.90
2023-04-09T00:52:45.890Z,85.71
2023-04-09T00:53:45.887Z,85.24
2023-04-09T00:54:45.898Z,85.33
2023-04-09T00:55:45.948Z,84.86
2023-04-09T00:56:45.944Z,84.86
2023-04-09T00:57:45.931Z,84.39
2023-04-09T00:58:45.926Z,84.48
2023-04-09T00:59:45.921Z,84.39
2023-04-09T01:00:45.943Z,83.91
2023-04-09T01:01:45.968Z,84.39
2023-04-09T01:02:46.097Z,84.58
2023-04-09T01:03:46.023Z,84.29
2023-04-09T01:04:45.953Z,83.82
2023-04-09T01:05:45.964Z,84.39
2023-04-09T01:06:45.959Z,83.63
2023-04-09T01:07:45.960Z,83.53
2023-04-09T01:08:45.989Z,83.72
2023-04-09T01:09:45.983Z,83.82
2023-04-09T01:10:45.978Z,83.53
2023-04-09T01:11:45.984Z,84.01
2023-04-09T01:12:46.013Z,84.29
2023-04-09T01:13:45.992Z,83.72
2023-04-09T01:14:46.017Z,83.44
2023-04-09T01:15:46.002Z,83.72
2023-04-09T01:16:46.058Z,83.82
2023-04-09T01:17:46.028Z,84.01
2023-04-09T01:18:46.022Z,84.10
2023-04-09T01:19:46.026Z,84.39
2023-04-09T01:20:46.039Z,84.20
2023-04-09T01:21:46.033Z,84.20
2023-04-09T01:22:46.044Z,83.91
2023-04-09T01:23:46.044Z,84.01
2023-04-09T01:24:46.057Z,84.20
2023-04-09T01:25:46.055Z,84.67
2023-04-09T01:26:46.065Z,84.10
2023-04-09T01:27:46.069Z,84.29
2023-04-09T01:28:46.117Z,84.39
2023-04-09T01:29:46.094Z,84.48
2023-04-09T01:30:46.089Z,85.00
2023-04-09T01:31:46.082Z,84.86
2023-04-09T01:32:46.186Z,84.95
2023-04-09T01:33:46.095Z,84.39
2023-04-09T01:34:46.104Z,84.48
2023-04-09T01:35:46.135Z,84.77
2023-04-09T01:36:46.125Z,84.25
2023-04-09T01:37:46.119Z,84.48
2023-04-09T01:38:46.121Z,84.39
2023-04-09T01:39:46.134Z,83.91
2023-04-09T01:40:46.133Z,84.20
2023-04-09T01:41:46.157Z,84.20
2023-04-09T01:42:46.143Z,84.16
2023-04-09T01:43:46.167Z,84.63
2023-04-09T01:44:46.176Z,84.48
2023-04-09T01:45:46.167Z,84.39
2023-04-09T01:46:46.165Z,84.72
2023-04-09T01:47:46.170Z,84.44
2023-04-09T01:48:46.173Z,84.58
2023-04-09T01:49:46.173Z,84.44
2023-04-09T01:50:46.188Z,84.77
2023-04-09T01:51:46.190Z,84.72
2023-04-09T01:52:46.195Z,84.63
2023-04-09T01:53:46.217Z,84.44
2023-04-09T01:54:46.205Z,84.67
2023-04-09T01:55:46.205Z,84.39
2023-04-09T01:56:46.223Z,84.67
2023-04-09T01:57:46.214Z,84.72
2023-04-09T01:58:46.222Z,84.63
2023-04-09T01:59:46.235Z,85.19
2023-04-09T02:00:46.346Z,85.19
2023-04-09T02:01:46.403Z,85.76
2023-04-09T02:02:46.333Z,85.85
2023-04-09T02:03:46.385Z,86.14
2023-04-09T02:04:46.253Z,86.23
2023-04-09T02:05:46.256Z,86.04
2023-04-09T02:06:46.264Z,86.80
2023-04-09T02:07:46.270Z,86.61
2023-04-09T02:08:46.301Z,86.42
2023-04-09T02:09:46.276Z,87.18
2023-04-09T02:10:46.281Z,87.46
2023-04-09T02:11:46.286Z,87.18
2023-04-09T02:12:46.289Z,87.84
2023-04-09T02:13:46.290Z,87.46
2023-04-09T02:14:46.302Z,87.65
2023-04-09T02:15:46.327Z,87.55
2023-04-09T02:16:46.329Z,87.37
2023-04-09T02:17:46.325Z,87.08
2023-04-09T02:18:46.349Z,86.90
2023-04-09T02:19:46.318Z,86.90
2023-04-09T02:20:46.334Z,86.90
2023-04-09T02:21:46.350Z,86.33
2023-04-09T02:22:46.348Z,86.52
2023-04-09T02:23:46.347Z,86.42
2023-04-09T02:24:46.348Z,86.99
2023-04-09T02:25:46.348Z,86.90
2023-04-09T02:26:46.364Z,86.71
2023-04-09T02:27:46.360Z,86.61
2023-04-09T02:28:46.365Z,86.90
2023-04-09T02:29:46.376Z,86.61
2023-04-09T02:30:46.418Z,86.42
2023-04-09T02:31:46.375Z,86.52
2023-04-09T02:32:46.460Z,86.90
2023-04-09T02:33:46.389Z,86.61
2023-04-09T02:34:46.406Z,86.71
2023-04-09T02:35:46.434Z,87.08
2023-04-09T02:36:46.411Z,87.18
2023-04-09T02:37:46.408Z,87.18
2023-04-09T02:38:46.431Z,87.18
2023-04-09T02:39:46.430Z,87.55
2023-04-09T02:40:46.422Z,87.18
2023-04-09T02:41:46.422Z,87.08
2023-04-09T02:42:46.428Z,86.99
2023-04-09T02:43:46.431Z,86.80
2023-04-09T02:44:46.442Z,86.71
2023-04-09T02:45:46.450Z,86.52
2023-04-09T02:46:46.505Z,86.14
2023-04-09T02:47:46.529Z,86.61
2023-04-09T02:48:46.473Z,86.52
2023-04-09T02:49:46.464Z,86.80
2023-04-09T02:50:46.472Z,86.52
2023-04-09T02:51:46.478Z,86.61
2023-04-09T02:52:46.484Z,86.71
2023-04-09T02:53:46.491Z,86.71
2023-04-09T02:54:46.487Z,86.52
2023-04-09T02:55:46.501Z,86.23
2023-04-09T02:56:46.497Z,86.61
2023-04-09T02:57:46.506Z,86.33
2023-04-09T02:58:46.506Z,86.71
2023-04-09T02:59:46.515Z,86.52
2023-04-09T03:00:46.515Z,86.71
2023-04-09T03:01:46.625Z,86.33
2023-04-09T03:02:46.676Z,86.33
2023-04-09T03:03:46.598Z,86.04
2023-04-09T03:04:46.544Z,85.66
2023-04-09T03:05:46.554Z,85.66
2023-04-09T03:06:46.544Z,86.04
2023-04-09T03:07:46.545Z,85.57
2023-04-09T03:08:46.551Z,85.57
2023-04-09T03:09:46.559Z,85.00
2023-04-09T03:10:46.558Z,84.25
2023-04-09T03:11:46.570Z,83.87
2023-04-09T03:12:46.572Z,83.49
2023-04-09T03:13:46.576Z,82.83
2023-04-09T03:14:46.590Z,82.73
2023-04-09T03:15:46.602Z,82.54
2023-04-09T03:16:46.601Z,82.54
2023-04-09T03:17:46.600Z,82.73
2023-04-09T03:18:46.592Z,82.73
2023-04-09T03:19:46.637Z,82.64
2023-04-09T03:20:46.620Z,82.45
2023-04-09T03:21:46.610Z,81.88
2023-04-09T03:22:46.618Z,81.79
2023-04-09T03:23:46.619Z,81.79
2023-04-09T03:24:46.629Z,81.79
2023-04-09T03:25:46.623Z,81.70
2023-04-09T03:26:46.633Z,81.98
2023-04-09T03:27:46.644Z,81.88
2023-04-09T03:28:46.640Z,81.88
2023-04-09T03:29:46.645Z,81.98
2023-04-09T03:30:46.702Z,82.07
2023-04-09T03:31:46.675Z,82.07
2023-04-09T03:32:46.684Z,82.54
2023-04-09T03:33:46.665Z,82.45
2023-04-09T03:34:46.666Z,82.45
2023-04-09T03:35:46.692Z,82.73
2023-04-09T03:36:46.691Z,82.54
2023-04-09T03:37:46.682Z,82.83
2023-04-09T03:38:46.683Z,82.45
2023-04-09T03:39:46.710Z,82.54
2023-04-09T03:40:46.696Z,82.92
2023-04-09T03:41:46.710Z,83.02
2023-04-09T03:42:46.705Z,82.92
2023-04-09T03:43:46.707Z,83.30
2023-04-09T03:44:46.720Z,83.11
2023-04-09T03:45:46.716Z,82.35
2023-04-09T03:46:46.739Z,82.45
2023-04-09T03:47:46.802Z,82.07
2023-04-09T03:48:46.724Z,82.17
2023-04-09T03:49:46.734Z,82.07
2023-04-09T03:50:46.777Z,82.07
2023-04-09T03:51:46.746Z,82.45
2023-04-09T03:52:46.766Z,82.54
2023-04-09T03:53:46.767Z,82.83
2023-04-09T03:54:46.759Z,82.83
2023-04-09T03:55:46.759Z,83.30
2023-04-09T03:56:46.763Z,83.49
2023-04-09T03:57:46.769Z,83.78
2023-04-09T03:58:46.770Z,84.16
2023-04-09T03:59:46.780Z,84.16
2023-04-09T04:00:46.779Z,84.25
2023-04-09T04:01:46.859Z,85.19
2023-04-09T04:02:46.934Z,86.61
2023-04-09T04:03:46.999Z,87.46
2023-04-09T04:04:46.863Z,89.26
2023-04-09T04:05:46.804Z,89.54
2023-04-09T04:06:46.800Z,91.05
2023-04-09T04:07:46.812Z,91.15
2023-04-09T04:08:46.828Z,91.05
2023-04-09T04:09:46.816Z,90.01
2023-04-09T04:10:46.819Z,89.36
2023-04-09T04:11:46.826Z,88.41
2023-04-09T04:12:46.876Z,88.41
2023-04-09T04:13:46.856Z,88.27
2023-04-09T04:14:46.837Z,89.17
2023-04-09T04:15:46.842Z,88.84
2023-04-09T04:16:46.958Z,88.98
2023-04-09T04:17:46.862Z,88.98
2023-04-09T04:18:46.852Z,89.12
2023-04-09T04:19:46.859Z,90.35
2023-04-09T04:20:46.861Z,91.10
2023-04-09T04:21:46.866Z,92.43
2023-04-09T04:22:46.868Z,92.71
2023-04-09T04:23:46.880Z,92.80
2023-04-09T04:24:46.897Z,92.99
2023-04-09T04:25:46.886Z,94.03
2023-04-09T04:26:46.884Z,94.22
2023-04-09T04:27:46.888Z,94.60
2023-04-09T04:28:46.912Z,94.70
2023-04-09T04:29:46.909Z,93.94
2023-04-09T04:30:46.899Z,94.13
2023-04-09T04:31:46.931Z,93.56
2023-04-09T04:32:46.935Z,92.71
2023-04-09T04:33:46.917Z,93.09
2023-04-09T04:34:46.924Z,92.61
2023-04-09T04:35:46.940Z,92.24
2023-04-09T04:36:46.926Z,92.71
2023-04-09T04:37:46.935Z,91.67
2023-04-09T04:38:46.932Z,91.67
2023-04-09T04:39:46.944Z,91.20
2023-04-09T04:40:47.058Z,91.01
2023-04-09T04:41:46.947Z,90.63
2023-04-09T04:42:46.956Z,90.35
2023-04-09T04:43:46.965Z,90.16
2023-04-09T04:44:46.960Z,90.16
2023-04-09T04:45:46.982Z,90.54
2023-04-09T04:46:46.970Z,90.35
2023-04-09T04:47:47.033Z,90.35
2023-04-09T04:48:47.011Z,90.35
2023-04-09T04:49:46.980Z,90.44
2023-04-09T04:50:46.980Z,89.78
2023-04-09T04:51:46.987Z,89.03
2023-04-09T04:52:46.993Z,88.84
2023-04-09T04:53:46.997Z,89.12
2023-04-09T04:54:46.995Z,89.22
2023-04-09T04:55:47.003Z,88.93
2023-04-09T04:56:47.026Z,89.03
2023-04-09T04:57:47.033Z,88.93
2023-04-09T04:58:47.012Z,88.74
2023-04-09T04:59:47.028Z,88.74
2023-04-09T05:00:47.028Z,88.65
2023-04-09T05:01:47.051Z,87.51
2023-04-09T05:02:47.139Z,87.51
2023-04-09T05:03:47.103Z,87.51
2023-04-09T05:04:47.059Z,87.42
2023-04-09T05:05:47.057Z,86.85
2023-04-09T05:06:47.045Z,87.04
2023-04-09T05:07:47.054Z,86.57
2023-04-09T05:08:47.060Z,86.76
2023-04-09T05:09:47.055Z,86.85
2023-04-09T05:10:47.056Z,86.47
2023-04-09T05:11:47.067Z,86.66
2023-04-09T05:12:47.086Z,86.76
2023-04-09T05:13:47.083Z,86.66
2023-04-09T05:14:47.071Z,86.94
2023-04-09T05:15:47.078Z,86.47
2023-04-09T05:16:47.102Z,86.76
2023-04-09T05:17:47.140Z,86.47
2023-04-09T05:18:47.097Z,86.76
2023-04-09T05:19:47.096Z,86.85
2023-04-09T05:20:47.101Z,87.42
2023-04-09T05:21:47.466Z,87.23
2023-04-09T05:22:47.110Z,87.23
2023-04-09T05:23:47.112Z,87.61
2023-04-09T05:24:47.112Z,87.79
2023-04-09T05:25:47.115Z,87.32
2023-04-09T05:26:47.118Z,87.51
2023-04-09T05:27:47.127Z,87.79
2023-04-09T05:28:47.145Z,87.89
2023-04-09T05:29:47.133Z,88.46
2023-04-09T05:30:47.166Z,87.79
2023-04-09T05:31:47.141Z,88.08
2023-04-09T05:32:47.214Z,88.08
2023-04-09T05:33:47.150Z,88.22
2023-04-09T05:34:47.148Z,88.31
2023-04-09T05:35:47.179Z,89.07
2023-04-09T05:36:47.161Z,89.78
2023-04-09T05:37:47.163Z,89.83
2023-04-09T05:38:47.182Z,89.92
2023-04-09T05:39:47.175Z,90.16
2023-04-09T05:40:47.175Z,90.16
2023-04-09T05:41:47.183Z,90.16
2023-04-09T05:42:47.193Z,90.49
2023-04-09T05:43:47.244Z,90.63
2023-04-09T05:44:47.212Z,90.73
2023-04-09T05:45:47.218Z,90.68
2023-04-09T05:46:47.248Z,91.29
2023-04-09T05:47:47.268Z,91.05
2023-04-09T05:48:47.225Z,90.20
2023-04-09T05:49:47.219Z,89.78
2023-04-09T05:50:53.826Z,89.07
2023-04-09T05:51:47.227Z,89.17
2023-04-09T05:52:47.229Z,88.41
2023-04-09T05:53:47.230Z,88.31
2023-04-09T05:54:47.229Z,88.50
2023-04-09T05:55:47.238Z,88.69
2023-04-09T05:56:47.240Z,88.12
2023-04-09T05:57:47.250Z,87.93
2023-04-09T05:58:47.245Z,87.84
2023-04-09T05:59:47.254Z,87.65
2023-04-09T06:00:47.287Z,87.46
2023-04-09T06:01:47.288Z,86.71
2023-04-09T06:02:47.393Z,86.99
2023-04-09T06:03:47.412Z,86.90
2023-04-09T06:04:47.320Z,86.80
2023-04-09T06:05:47.294Z,86.71
2023-04-09T06:06:47.279Z,86.61
2023-04-09T06:07:47.286Z,86.71
2023-04-09T06:08:47.288Z,86.99
2023-04-09T06:09:47.295Z,86.71
2023-04-09T06:10:47.295Z,86.71
2023-04-09T06:11:47.335Z,86.80
2023-04-09T06:12:47.304Z,86.80
2023-04-09T06:13:47.310Z,86.04
2023-04-09T06:14:47.312Z,86.33
2023-04-09T06:15:47.347Z,85.66
2023-04-09T06:16:47.343Z,85.38
2023-04-09T06:17:47.379Z,85.10
2023-04-09T06:18:47.326Z,84.16
2023-04-09T06:19:47.336Z,84.53
2023-04-09T06:20:47.337Z,84.16
2023-04-09T06:21:47.355Z,84.06
2023-04-09T06:22:47.342Z,84.16
2023-04-09T06:23:47.353Z,83.87
2023-04-09T06:24:47.365Z,83.30
2023-04-09T06:25:47.362Z,82.92
2023-04-09T06:26:47.364Z,83.02
2023-04-09T06:27:47.367Z,82.64
2023-04-09T06:28:47.370Z,83.30
2023-04-09T06:29:47.377Z,82.64
2023-04-09T06:30:47.387Z,82.64
2023-04-09T06:31:47.384Z,82.59
2023-04-09T06:32:54.414Z,83.15
2023-04-09T06:33:47.392Z,84.39
2023-04-09T06:34:47.398Z,83.34
2023-04-09T06:35:47.442Z,84.01
2023-04-09T06:36:47.413Z,84.29
2023-04-09T06:37:47.407Z,83.63
2023-04-09T06:38:47.413Z,83.06
2023-04-09T06:39:59.984Z,82.02
2023-04-09T06:40:47.418Z,81.74
2023-04-09T06:41:47.432Z,81.07
2023-04-09T06:42:47.424Z,82.02
2023-04-09T06:43:47.436Z,82.50
2023-04-09T06:44:47.530Z,81.30
2023-04-09T06:45:47.447Z,80.17
2023-04-09T06:46:47.489Z,79.79
2023-04-09T06:47:47.468Z,78.85
2023-04-09T06:48:47.501Z,78.18
2023-04-09T06:49:47.468Z,78.65
2023-04-09T06:50:47.471Z,77.99
2023-04-09T06:51:47.474Z,77.33
2023-04-09T06:52:47.474Z,77.42
2023-04-09T06:53:47.538Z,77.99
2023-04-09T06:54:47.478Z,78.37
2023-04-09T06:55:47.485Z,77.89
2023-04-09T06:56:47.492Z,79.13
2023-04-09T06:57:47.691Z,79.32
2023-04-09T06:58:47.500Z,79.88
2023-04-09T06:59:47.504Z,79.32
2023-04-09T07:00:47.512Z,77.23
2023-04-09T07:01:47.630Z,77.89
2023-04-09T07:02:47.740Z,77.80
2023-04-09T07:03:47.557Z,79.79
2023-04-09T07:04:47.790Z,82.25
2023-04-09T07:05:47.529Z,83.29
2023-04-09T07:06:47.535Z,84.71
2023-04-09T07:07:47.559Z,83.76
2023-04-09T07:08:47.548Z,83.76
2023-04-09T07:09:47.544Z,82.91
2023-04-09T07:10:47.564Z,81.96
2023-04-09T07:11:47.746Z,80.55
2023-04-09T07:12:47.570Z,79.88
2023-04-09T07:13:47.580Z,79.79
2023-04-09T07:14:47.573Z,80.26
2023-04-09T07:15:47.615Z,80.74
2023-04-09T07:16:47.584Z,80.93
2023-04-09T07:17:47.619Z,81.40
2023-04-09T07:18:47.592Z,80.45
2023-04-09T07:19:47.589Z,79.60
2023-04-09T07:20:47.619Z,80.07
2023-04-09T07:21:47.604Z,78.56
2023-04-09T07:22:47.608Z,79.03
2023-04-09T07:23:47.609Z,83.33
2023-04-09T07:24:47.615Z,82.39
2023-04-09T07:25:47.617Z,81.34
2023-04-09T07:26:47.646Z,81.53
2023-04-09T07:27:47.628Z,81.15
2023-04-09T07:28:47.644Z,81.34
2023-04-09T07:29:47.656Z,81.82
2023-04-09T07:30:47.665Z,80.40
2023-04-09T07:31:47.778Z,79.93
2023-04-09T07:32:47.720Z,79.17
2023-04-09T07:33:47.656Z,78.88
2023-04-09T07:34:47.666Z,79.93
2023-04-09T07:35:47.689Z,80.77
2023-04-09T07:36:47.696Z,80.21
2023-04-09T07:37:47.674Z,78.59
2023-04-09T07:38:47.687Z,81.15
2023-04-09T07:39:47.702Z,81.44
2023-04-09T07:40:47.694Z,81.44
2023-04-09T07:41:47.692Z,83.81
2023-04-09T07:42:47.718Z,83.66
2023-04-09T07:43:47.926Z,82.14
2023-04-09T07:44:47.777Z,82.90
2023-04-09T07:45:47.713Z,82.24
2023-04-09T07:46:47.801Z,81.29
2023-04-09T07:47:47.747Z,78.88
2023-04-09T07:48:48.500Z,77.75
2023-04-09T07:49:47.740Z,78.31
2023-04-09T07:50:47.743Z,78.22
2023-04-09T07:51:47.748Z,78.22
2023-04-09T07:52:47.771Z,79.36
2023-04-09T07:53:47.779Z,79.96
2023-04-09T07:54:47.763Z,78.03
2023-04-09T07:55:47.770Z,76.80
2023-04-09T07:56:47.777Z,76.70
2023-04-09T07:57:47.774Z,77.65
2023-04-09T07:58:47.787Z,77.27
2023-04-09T07:59:47.789Z,78.13
2023-04-09T08:00:47.793Z,77.75
2023-04-09T08:01:47.847Z,79.64
2023-04-09T08:02:47.935Z,80.72
2023-04-09T08:03:48.040Z,78.26
2023-04-09T08:04:47.939Z,76.14
2023-04-09T08:05:47.819Z,76.42
2023-04-09T08:06:47.833Z,77.08
2023-04-09T08:07:47.834Z,78.59
2023-04-09T08:08:47.861Z,79.02
2023-04-09T08:09:47.836Z,78.16
2023-04-09T08:10:47.853Z,77.03
2023-04-09T08:11:47.847Z,81.01
2023-04-09T08:12:47.856Z,79.77
2023-04-09T08:13:47.863Z,78.96
2023-04-09T08:14:47.873Z,75.04
2023-04-09T08:15:47.886Z,75.04
2023-04-09T08:16:48.013Z,76.36
2023-04-09T08:17:47.908Z,75.79
2023-04-09T08:18:47.882Z,74.75
2023-04-09T08:19:47.890Z,73.80
2023-04-09T08:20:47.909Z,74.09
2023-04-09T08:21:47.895Z,73.05
2023-04-09T08:22:47.911Z,73.99
2023-04-09T08:23:47.907Z,76.46
2023-04-09T08:24:47.937Z,75.93
2023-04-09T08:25:47.917Z,74.75
2023-04-09T08:26:47.925Z,74.95
2023-04-09T08:27:47.932Z,75.04
2023-04-09T08:28:47.939Z,74.56
2023-04-09T08:29:47.938Z,74.79
2023-04-09T08:30:47.943Z,74.60
2023-04-09T08:31:48.104Z,75.26
2023-04-09T08:32:47.990Z,73.75
2023-04-09T08:33:47.964Z,74.98
2023-04-09T08:34:47.978Z,76.21
2023-04-09T08:35:48.008Z,77.77
2023-04-09T08:36:48.013Z,76.63
2023-04-09T08:37:47.982Z,77.11
2023-04-09T08:38:47.997Z,75.74
2023-04-09T08:39:47.994Z,76.31
2023-04-09T08:40:48.021Z,77.54
2023-04-09T08:41:48.004Z,79.34
2023-04-09T08:42:48.014Z,78.58
2023-04-09T08:44:48.028Z,78.30
2023-04-09T08:45:48.069Z,76.21
2023-04-09T08:46:48.035Z,75.55
2023-04-09T08:47:48.147Z,73.94
2023-04-09T08:48:48.058Z,74.69
2023-04-09T08:49:48.046Z,75.07
2023-04-09T08:50:48.069Z,75.07
2023-04-09T08:51:48.066Z,74.41
2023-04-09T08:52:48.115Z,75.31
2023-04-09T08:53:48.090Z,73.18
2023-04-09T08:54:48.136Z,72.23
2023-04-09T08:55:48.084Z,74.69
2023-04-09T08:56:48.172Z,73.84
2023-04-09T08:57:48.095Z,73.79
2023-04-09T08:58:48.113Z,72.64
2023-04-09T08:59:48.128Z,71.98
2023-04-09T09:00:48.116Z,68.57
2023-04-09T09:01:48.255Z,64.97
2023-04-09T09:02:48.173Z,63.17
2023-04-09T09:03:48.231Z,64.08
2023-04-09T09:04:48.143Z,67.24
2023-04-09T09:05:48.151Z,68.10
2023-04-09T09:06:48.166Z,68.48
2023-04-09T09:07:48.167Z,68.57
2023-04-09T09:08:48.165Z,69.27
2023-04-09T09:09:48.168Z,69.65
2023-04-09T09:10:48.179Z,69.61
2023-04-09T09:11:48.184Z,68.48
2023-04-09T09:12:48.221Z,68.85
2023-04-09T09:13:48.192Z,66.39
2023-04-09T09:14:48.212Z,67.24
2023-04-09T09:15:48.215Z,69.04
2023-04-09T09:16:48.264Z,67.24
2023-04-09T09:17:48.251Z,68.32
2023-04-09T09:18:48.233Z,70.69
2023-04-09T09:19:48.236Z,70.31
2023-04-09T09:20:48.246Z,69.46
2023-04-09T09:21:48.248Z,70.21
2023-04-09T09:22:49.119Z,71.17
2023-04-09T09:23:48.313Z,70.59
2023-04-09T09:24:49.799Z,70.88
2023-04-09T09:25:48.270Z,68.23
2023-04-09T09:26:48.281Z,66.14
2023-04-09T09:27:48.294Z,66.04
2023-04-09T09:28:48.341Z,66.33
2023-04-09T09:29:48.298Z,66.42
2023-04-09T09:30:49.272Z,68.32
2023-04-09T09:31:48.319Z,66.80
2023-04-09T09:32:48.328Z,67.46
2023-04-09T09:33:48.324Z,67.59
2023-04-09T09:34:48.338Z,67.02
2023-04-09T09:35:48.371Z,62.43
2023-04-09T09:36:48.353Z,61.99
2023-04-09T09:37:48.357Z,64.84
2023-04-09T09:38:48.368Z,65.92
2023-04-09T09:39:48.373Z,64.17
2023-04-09T09:40:48.391Z,65.12
2023-04-09T09:41:48.385Z,65.60
2023-04-09T09:42:48.397Z,67.40
2023-04-09T09:43:48.401Z,68.86
2023-04-09T09:44:48.431Z,68.44
2023-04-09T09:45:48.477Z,68.83
2023-04-09T09:46:48.425Z,68.41
2023-04-09T09:47:48.511Z,68.98
2023-04-09T09:48:48.447Z,69.36
2023-04-09T09:49:48.456Z,69.02
2023-04-09T09:50:48.468Z,68.41
2023-04-09T09:51:48.470Z,67.50
2023-04-09T09:52:48.482Z,65.88
2023-04-09T09:53:49.790Z,64.56
2023-04-09T09:54:48.491Z,67.72
2023-04-09T09:55:48.517Z,68.99
2023-04-09T09:56:48.501Z,67.88
2023-04-09T09:57:48.521Z,65.70
2023-04-09T09:58:48.518Z,63.60
2023-04-09T09:59:48.521Z,62.85
2023-04-09T10:00:48.559Z,62.75
2023-04-09T10:01:48.647Z,64.24
2023-04-09T10:02:48.667Z,64.72
2023-04-09T10:03:48.553Z,65.95
2023-04-09T10:04:48.694Z,65.76
2023-04-09T10:05:48.576Z,64.43
2023-04-09T10:06:48.579Z,66.24
2023-04-09T10:07:48.607Z,66.33
2023-04-09T10:08:48.601Z,68.23
2023-04-09T10:09:48.612Z,69.41
2023-04-09T10:10:48.640Z,67.60
2023-04-09T10:11:48.617Z,66.55
2023-04-09T10:12:48.635Z,65.38
2023-04-09T10:13:48.639Z,67.38
2023-04-09T10:14:48.645Z,67.98
2023-04-09T10:15:48.673Z,65.89
2023-04-09T10:16:48.694Z,59.23
2023-04-09T10:17:48.691Z,59.96
2023-04-09T10:18:48.689Z,61.71
2023-04-09T10:19:48.689Z,62.56
2023-04-09T10:20:48.697Z,64.18
2023-04-09T10:21:48.703Z,65.89
2023-04-09T10:22:48.716Z,67.60
2023-04-09T10:23:48.721Z,68.21
2023-04-09T10:24:48.736Z,68.40
2023-04-09T10:25:48.735Z,65.80
2023-04-09T10:26:48.753Z,66.94
2023-04-09T10:27:48.756Z,64.27
2023-04-09T10:28:48.770Z,60.18
2023-04-09T10:29:48.800Z,65.25
2023-04-09T10:30:48.836Z,63.20
2023-04-09T10:31:48.794Z,62.62
2023-04-09T10:32:48.858Z,59.96
2023-04-09T10:33:48.812Z,60.53
2023-04-09T10:34:48.829Z,63.01
2023-04-09T10:35:48.847Z,62.78
2023-04-09T10:36:48.840Z,63.92
2023-04-09T10:37:48.848Z,65.58
2023-04-09T10:38:48.856Z,63.01
2023-04-09T10:39:48.868Z,62.15
2023-04-09T10:40:48.876Z,62.15
2023-04-09T10:41:48.888Z,63.29
2023-04-09T10:42:48.917Z,62.37
2023-04-09T10:43:48.949Z,59.32
2023-04-09T10:44:48.920Z,57.13
2023-04-09T10:45:48.923Z,56.63
2023-04-09T10:46:48.982Z,55.77
2023-04-09T10:47:49.004Z,56.05
2023-04-09T10:48:48.994Z,56.53
2023-04-09T10:49:48.972Z,55.77
2023-04-09T10:50:49.020Z,57.04
2023-04-09T10:51:48.986Z,56.92
2023-04-09T10:52:48.996Z,58.28
2023-04-09T10:53:49.003Z,55.22
2023-04-09T10:54:49.026Z,53.13
2023-04-09T10:55:49.028Z,52.84
2023-04-09T10:56:49.040Z,54.37
2023-04-09T10:57:49.053Z,52.94
2023-04-09T10:58:49.061Z,51.51
2023-04-09T10:59:49.067Z,49.90
2023-04-09T11:00:49.083Z,50.37
2023-04-09T11:01:49.280Z,54.75
2023-04-09T11:02:49.333Z,55.35
2023-04-09T11:03:49.180Z,51.42
2023-04-09T11:04:49.177Z,49.61
2023-04-09T11:05:49.144Z,51.23
2023-04-09T11:06:49.149Z,51.54
2023-04-09T11:07:49.151Z,50.11
2023-04-09T11:08:49.182Z,49.71
2023-04-09T11:09:49.171Z,50.56
2023-04-09T11:10:52.029Z,53.83
2023-04-09T11:11:49.216Z,54.02
2023-04-09T11:12:49.236Z,53.56
2023-04-09T11:13:49.216Z,52.04
2023-04-09T11:14:49.229Z,52.80
2023-04-09T11:15:49.256Z,53.02
2023-04-09T11:16:49.334Z,51.56
2023-04-09T11:17:49.319Z,52.55
2023-04-09T11:18:49.300Z,52.55
2023-04-09T11:19:49.280Z,51.59
2023-04-09T11:20:49.320Z,51.50
2023-04-09T11:21:49.305Z,51.40
2023-04-09T11:22:49.318Z,51.28
2023-04-09T11:23:49.327Z,51.37
2023-04-09T11:24:49.335Z,50.35
2023-04-09T11:25:49.355Z,50.80
2023-04-09T11:26:49.359Z,52.26
2023-04-09T11:27:49.371Z,51.12
2023-04-09T11:28:49.386Z,47.58
2023-04-09T11:29:49.399Z,47.89
2023-04-09T11:30:49.408Z,46.18
2023-04-09T11:31:49.449Z,47.49
2023-04-09T11:32:49.437Z,49.08
2023-04-09T11:33:49.438Z,52.14
2023-04-09T11:34:49.448Z,51.56
2023-04-09T11:35:49.525Z,51.37
2023-04-09T11:36:49.497Z,51.95
2023-04-09T11:37:49.486Z,54.45
2023-04-09T11:38:49.605Z,53.12
2023-04-09T11:39:49.508Z,51.66
2023-04-09T11:40:49.980Z,50.42
2023-04-09T11:41:49.535Z,53.88
2023-04-09T11:42:49.554Z,51.16
2023-04-09T11:43:49.560Z,50.46
2023-04-09T11:44:49.586Z,52.66
2023-04-09T11:45:49.596Z,54.18
2023-04-09T11:46:49.682Z,53.80
2023-04-09T11:47:49.656Z,54.78
2023-04-09T11:48:49.642Z,55.57
2023-04-09T11:49:49.631Z,51.09
2023-04-09T11:50:49.646Z,50.90
2023-04-09T11:51:49.680Z,52.45
2023-04-09T11:52:49.684Z,51.31
2023-04-09T11:53:49.680Z,50.54
2023-04-09T11:54:49.682Z,49.76
2023-04-09T11:55:49.705Z,51.47
2023-04-09T11:56:49.712Z,56.74
2023-04-09T11:57:49.727Z,54.67
2023-04-09T11:58:49.836Z,48.85
2023-04-09T11:59:49.746Z,46.68
2023-04-09T12:00:49.758Z,48.39
2023-04-09T12:01:49.826Z,47.82
2023-04-09T12:02:49.995Z,47.02
2023-04-09T12:03:49.895Z,47.39
2023-04-09T12:04:49.886Z,45.49
2023-04-09T12:05:51.024Z,47.39
2023-04-09T12:06:49.838Z,48.44
2023-04-09T12:07:55.963Z,48.23
2023-04-09T12:08:49.953Z,48.42
2023-04-09T12:09:49.888Z,49.87
2023-04-09T12:10:51.428Z,46.23
2023-04-09T12:11:49.893Z,41.06
2023-04-09T12:12:49.903Z,41.35
2023-04-09T12:13:49.934Z,44.30
2023-04-09T12:14:49.927Z,46.04
2023-04-09T12:15:50.110Z,45.84
2023-04-09T12:16:49.980Z,48.94
2023-04-09T12:17:50.061Z,46.84
2023-04-09T12:18:50.002Z,46.11
2023-04-09T12:19:50.001Z,43.72
2023-04-09T12:20:50.019Z,46.22
2023-04-09T12:21:50.044Z,44.02
2023-04-09T12:22:50.027Z,42.40
2023-04-09T12:23:50.040Z,44.31
2023-04-09T12:24:50.069Z,44.41
2023-04-09T12:25:50.063Z,43.24
2023-04-09T12:26:50.075Z,41.58
2023-04-09T12:27:50.096Z,42.32
2023-04-09T12:28:50.112Z,36.20
2023-04-09T12:29:50.115Z,36.03
2023-04-09T12:30:50.137Z,37.93
2023-04-09T12:31:50.158Z,42.03
2023-04-09T12:32:50.193Z,44.82
2023-04-09T12:33:50.163Z,40.99
2023-04-09T12:34:50.173Z,39.19
2023-04-09T12:35:50.243Z,38.51
2023-04-09T12:36:50.216Z,37.73
2023-04-09T12:37:50.217Z,37.92
2023-04-09T12:38:50.441Z,36.57
2023-04-09T12:39:50.239Z,36.01
2023-04-09T12:40:50.279Z,38.29
2023-04-09T12:41:50.271Z,38.98
2023-04-09T12:42:50.315Z,42.05
2023-04-09T12:43:50.397Z,42.53
2023-04-09T12:44:50.298Z,46.08
2023-04-09T12:45:50.405Z,45.43
2023-04-09T12:46:50.321Z,42.36
2023-04-09T12:47:50.388Z,40.91
2023-04-09T12:48:50.354Z,40.34
2023-04-09T12:49:50.363Z,40.81
2023-04-09T12:50:50.383Z,40.91
2023-04-09T12:51:50.388Z,43.96
2023-04-09T12:52:50.407Z,43.10
2023-04-09T12:53:50.627Z,42.91